createdAt,value
2019-04-11T00:01:34.161Z,46.61
2019-04-11T00:03:54.719Z,47.09
2019-04-11T00:06:25.651Z,47.43
2019-04-11T00:08:58.498Z,46.68
2019-04-11T00:11:30.202Z,46.78
2019-04-11T00:14:01.034Z,47.02
2019-04-11T00:16:32.926Z,46.79
2019-04-11T00:19:05.161Z,46.67
2019-04-11T00:21:35.746Z,46.90
2019-04-11T00:24:07.069Z,46.43
2019-04-11T00:26:38.186Z,46.43
2019-04-11T00:29:10.172Z,47.00
2019-04-11T00:31:41.107Z,47.28
2019-04-11T00:34:12.950Z,47.48
2019-04-11T00:36:44.814Z,47.79
2019-04-11T00:39:15.674Z,48.92
2019-04-11T00:41:46.359Z,48.62
2019-04-11T00:44:16.944Z,48.26
2019-04-11T00:46:48.767Z,48.78
2019-04-11T00:49:19.496Z,49.47
2019-04-11T00:51:50.080Z,49.84
2019-04-11T00:54:20.975Z,49.52
2019-04-11T00:56:52.673Z,49.58
2019-04-11T00:59:23.233Z,49.99
2019-04-11T01:01:53.832Z,49.64
2019-04-11T01:04:25.485Z,50.31
2019-04-11T01:06:56.457Z,49.63
2019-04-11T01:09:27.040Z,49.15
2019-04-11T01:11:59.100Z,49.31
2019-04-11T01:14:29.965Z,48.75
2019-04-11T01:17:01.619Z,48.54
2019-04-11T01:19:33.007Z,48.73
2019-04-11T01:22:03.711Z,48.88
2019-04-11T01:24:35.605Z,49.15
2019-04-11T01:27:07.698Z,49.12
2019-04-11T01:29:38.288Z,48.74
2019-04-11T01:32:10.661Z,49.83
2019-04-11T01:34:41.186Z,50.96
2019-04-11T01:37:13.389Z,50.24
2019-04-11T01:40:01.347Z,49.96
2019-04-11T01:42:33.437Z,49.82
2019-04-11T01:45:05.496Z,49.66
2019-04-11T01:47:55.424Z,49.68
2019-04-11T01:50:27.650Z,49.72
2019-04-11T01:52:58.468Z,49.95
2019-04-11T01:55:29.983Z,49.81
2019-04-11T01:58:00.682Z,49.83
2019-04-11T02:00:48.735Z,49.86
2019-04-11T02:03:21.258Z,49.48
2019-04-11T02:05:51.859Z,49.48
2019-04-11T02:08:23.025Z,49.30
2019-04-11T02:10:53.619Z,48.86
2019-04-11T02:13:24.376Z,48.86
2019-04-11T02:15:56.820Z,48.74
2019-04-11T02:18:27.643Z,48.97
2019-04-11T02:20:58.310Z,49.07
2019-04-11T02:23:47.623Z,49.24
2019-04-11T02:26:20.926Z,49.43
2019-04-11T02:28:51.504Z,49.86
2019-04-11T02:31:23.099Z,49.85
2019-04-11T02:33:55.246Z,49.75
2019-04-11T02:36:27.321Z,50.00
2019-04-11T02:39:02.179Z,49.97
2019-04-11T02:41:32.013Z,49.69
2019-04-11T02:44:03.624Z,49.78
2019-04-11T02:46:42.531Z,50.10
2019-04-11T02:49:08.110Z,49.53
2019-04-11T02:51:39.269Z,49.84
2019-04-11T02:54:11.408Z,50.06
2019-04-11T02:56:43.564Z,50.80
2019-04-11T02:59:15.479Z,51.05
2019-04-11T03:01:46.519Z,50.96
2019-04-11T03:04:20.055Z,50.79
2019-04-11T03:06:51.986Z,51.35
2019-04-11T03:09:24.149Z,51.88
2019-04-11T03:11:56.657Z,51.63
2019-04-11T03:14:29.323Z,52.97
2019-04-11T03:17:11.972Z,52.23
2019-04-11T03:19:46.842Z,52.00
2019-04-11T03:22:05.619Z,52.10
2019-04-11T03:24:38.390Z,52.47
2019-04-11T03:27:11.096Z,51.86
2019-04-11T03:29:43.113Z,52.57
2019-04-11T03:33:02.226Z,52.80
2019-04-11T03:37:47.765Z,53.03
2019-04-11T03:40:11.848Z,53.32
2019-04-11T03:42:41.667Z,53.46
2019-04-11T03:45:20.716Z,53.01
2019-04-11T03:47:40.977Z,53.07
2019-04-11T03:50:08.580Z,53.84
2019-04-11T03:52:36.575Z,53.70
2019-04-11T03:55:08.590Z,53.60
2019-04-11T03:57:41.565Z,54.61
2019-04-11T04:00:14.756Z,54.75
2019-04-11T04:02:46.787Z,54.68
2019-04-11T04:05:18.140Z,55.01
2019-04-11T04:07:49.432Z,55.00
2019-04-11T04:10:23.414Z,54.59
2019-04-11T04:12:56.553Z,54.53
2019-04-11T04:15:41.030Z,54.73
2019-04-11T04:18:05.859Z,54.05
2019-04-11T04:20:42.387Z,54.28
2019-04-11T04:23:16.632Z,54.01
2019-04-11T04:25:49.256Z,53.73
2019-04-11T04:28:21.469Z,53.36
2019-04-11T04:30:53.857Z,53.09
2019-04-11T04:33:26.486Z,52.77
2019-04-11T04:35:58.026Z,53.72
2019-04-11T04:38:29.585Z,54.38
2019-04-11T04:41:16.311Z,54.63
2019-04-11T04:43:34.063Z,54.70
2019-04-11T04:46:25.176Z,53.91
2019-04-11T04:48:38.910Z,53.96
2019-04-11T04:51:11.986Z,54.68
2019-04-11T04:53:43.111Z,55.45
2019-04-11T04:56:15.381Z,55.94
2019-04-11T04:58:46.693Z,56.50
2019-04-11T05:01:19.369Z,55.71
2019-04-11T05:03:51.042Z,54.89
2019-04-11T05:06:21.761Z,55.04
2019-04-11T05:08:53.922Z,55.39
2019-04-11T05:11:26.089Z,54.32
2019-04-11T05:13:58.594Z,53.94
2019-04-11T05:16:30.815Z,54.62
2019-04-11T05:19:01.876Z,52.16
2019-04-11T05:21:33.267Z,45.37
2019-04-11T05:24:04.110Z,44.65
2019-04-11T05:26:35.476Z,42.26
2019-04-11T05:29:06.435Z,42.16
2019-04-11T05:31:37.037Z,42.48
2019-04-11T05:34:07.827Z,45.75
2019-04-11T05:36:40.788Z,50.20
2019-04-11T05:39:11.470Z,52.24
2019-04-11T05:41:46.649Z,53.13
2019-04-11T05:44:16.738Z,54.29
2019-04-11T05:46:54.946Z,55.74
2019-04-11T05:49:29.080Z,56.71
2019-04-11T05:52:02.096Z,58.04
2019-04-11T05:54:49.032Z,55.89
2019-04-11T05:57:23.850Z,55.75
2019-04-11T05:59:54.341Z,55.00
2019-04-11T06:02:33.726Z,55.70
2019-04-11T06:05:09.440Z,57.24
2019-04-11T06:07:46.195Z,56.15
2019-04-11T06:10:31.760Z,55.42
2019-04-11T06:13:07.933Z,56.38
2019-04-11T06:15:42.817Z,57.43
2019-04-11T06:18:25.944Z,57.04
2019-04-11T06:20:51.505Z,59.04
2019-04-11T06:23:29.919Z,57.79
2019-04-11T06:26:14.690Z,58.59
2019-04-11T06:28:45.291Z,58.53
2019-04-11T06:31:26.493Z,52.78
2019-04-11T06:34:05.040Z,49.87
2019-04-11T06:36:46.878Z,43.78
2019-04-11T06:39:27.276Z,46.40
2019-04-11T06:42:08.860Z,43.50
2019-04-11T06:44:58.465Z,41.84
2019-04-11T06:47:40.921Z,41.79
2019-04-11T06:50:13.903Z,41.58
2019-04-11T06:52:46.179Z,39.24
2019-04-11T06:55:22.443Z,40.07
2019-04-11T06:57:54.731Z,41.08
2019-04-11T07:00:25.877Z,40.68
2019-04-11T07:03:01.385Z,40.31
2019-04-11T07:05:35.027Z,38.65
2019-04-11T07:08:07.690Z,41.08
2019-04-11T07:10:40.159Z,37.73
2019-04-11T07:13:12.859Z,36.24
2019-04-11T07:15:46.341Z,34.02
2019-04-11T07:18:35.711Z,34.10
2019-04-11T07:21:08.509Z,33.51
2019-04-11T07:23:57.633Z,34.51
2019-04-11T07:26:39.423Z,32.75
2019-04-11T07:29:21.538Z,32.85
2019-04-11T07:32:04.737Z,31.68
2019-04-11T07:34:54.419Z,30.94
2019-04-11T07:37:30.241Z,31.16
2019-04-11T07:40:15.997Z,32.06
2019-04-11T07:43:11.532Z,31.79
2019-04-11T07:45:43.302Z,32.61
2019-04-11T07:48:19.354Z,32.27
2019-04-11T07:50:53.612Z,34.25
2019-04-11T07:53:24.781Z,32.14
2019-04-11T07:55:55.498Z,31.00
2019-04-11T07:58:30.915Z,31.64
2019-04-11T08:01:10.400Z,29.58
2019-04-11T08:03:42.636Z,31.23
2019-04-11T08:06:20.824Z,29.46
2019-04-11T08:09:09.715Z,30.00
2019-04-11T08:11:42.347Z,29.73
2019-04-11T08:14:18.572Z,30.23
2019-04-11T08:16:59.952Z,31.24
2019-04-11T08:19:49.089Z,30.51
2019-04-11T08:22:21.380Z,31.71
2019-04-11T08:24:53.631Z,33.95
2019-04-11T08:27:35.770Z,33.13
2019-04-11T08:30:08.696Z,31.64
2019-04-11T08:32:46.946Z,31.93
2019-04-11T08:35:19.837Z,31.30
2019-04-11T08:38:02.721Z,30.00
2019-04-11T08:40:38.092Z,31.07
2019-04-11T08:43:19.336Z,30.66
2019-04-11T08:45:51.593Z,29.32
2019-04-11T08:48:22.890Z,29.87
2019-04-11T08:50:55.083Z,31.08
2019-04-11T08:53:40.679Z,34.35
2019-04-11T08:56:12.453Z,34.98
2019-04-11T08:59:13.353Z,33.02
2019-04-11T09:01:44.269Z,32.04
2019-04-11T09:04:36.444Z,30.57
2019-04-11T09:07:10.306Z,30.40
2019-04-11T09:09:48.912Z,29.69
2019-04-11T09:12:20.560Z,30.15
2019-04-11T09:14:54.753Z,29.87
2019-04-11T09:17:28.138Z,30.37
2019-04-11T09:20:07.347Z,30.29
2019-04-11T09:22:41.483Z,32.14
2019-04-11T09:25:15.208Z,33.39
2019-04-11T09:27:57.513Z,34.27
2019-04-11T09:30:43.039Z,34.06
2019-04-11T09:33:31.719Z,32.66
2019-04-11T09:36:19.966Z,32.02
2019-04-11T09:39:07.656Z,34.48
2019-04-11T09:41:56.603Z,34.83
2019-04-11T09:44:28.882Z,35.35
2019-04-11T09:47:04.102Z,34.10
2019-04-11T09:49:39.598Z,33.40
2019-04-11T09:52:12.257Z,33.07
2019-04-11T09:55:02.846Z,33.30
2019-04-11T09:57:36.565Z,34.04
2019-04-11T10:00:22.930Z,34.03
2019-04-11T10:02:58.729Z,32.60
2019-04-11T10:05:46.766Z,33.27
2019-04-11T10:08:22.879Z,32.81
2019-04-11T10:11:10.178Z,31.89
2019-04-11T10:13:44.933Z,32.05
2019-04-11T10:16:24.161Z,32.02
2019-04-11T10:19:13.846Z,33.08
2019-04-11T10:21:59.398Z,33.66
2019-04-11T10:24:40.958Z,34.09
2019-04-11T10:27:14.232Z,34.15
2019-04-11T10:30:03.105Z,34.84
2019-04-11T10:32:43.437Z,34.64
2019-04-11T10:35:32.552Z,33.94
2019-04-11T10:38:05.309Z,33.84
2019-04-11T10:40:56.675Z,34.13
2019-04-11T10:43:29.211Z,34.67
2019-04-11T10:46:01.496Z,34.42
2019-04-11T10:48:39.309Z,34.05
2019-04-11T10:51:14.926Z,34.64
2019-04-11T10:53:47.045Z,34.22
2019-04-11T10:56:37.277Z,34.02
2019-04-11T10:59:09.079Z,34.81
2019-04-11T11:02:00.270Z,34.42
2019-04-11T11:04:36.747Z,34.17
2019-04-11T11:07:11.491Z,34.59
2019-04-11T11:09:44.406Z,34.26
2019-04-11T11:12:19.237Z,34.40
2019-04-11T11:14:52.398Z,33.92
2019-04-11T11:17:54.916Z,34.16
2019-04-11T11:20:21.545Z,33.71
2019-04-11T11:22:57.655Z,33.75
2019-04-11T11:25:48.535Z,34.38
2019-04-11T11:28:18.582Z,34.56
2019-04-11T11:30:52.050Z,35.00
2019-04-11T11:33:25.235Z,34.55
2019-04-11T11:36:02.678Z,33.71
2019-04-11T11:38:33.681Z,34.40
2019-04-11T11:41:22.699Z,33.88
2019-04-11T11:43:57.086Z,33.38
2019-04-11T11:46:46.541Z,33.43
2019-04-11T11:49:36.276Z,33.80
2019-04-11T11:51:58.038Z,34.14
2019-04-11T11:54:29.310Z,35.20
2019-04-11T11:57:02.406Z,35.51
2019-04-11T11:59:34.771Z,35.23
2019-04-11T12:02:08.481Z,35.22
2019-04-11T12:04:44.679Z,34.73
2019-04-11T12:07:21.021Z,35.68
2019-04-11T12:10:11.158Z,34.65
2019-04-11T12:12:44.186Z,35.23
2019-04-11T12:15:32.978Z,35.10
2019-04-11T12:18:09.567Z,34.32
2019-04-11T12:20:57.429Z,34.41
2019-04-11T12:23:29.559Z,34.73
2019-04-11T12:26:01.731Z,34.06
2019-04-11T12:28:40.160Z,35.51
2019-04-11T12:31:11.534Z,35.56
2019-04-11T12:34:00.094Z,35.26
2019-04-11T12:36:32.576Z,35.04
2019-04-11T12:39:14.129Z,34.71
2019-04-11T12:41:58.675Z,34.50
2019-04-11T12:44:31.033Z,35.23
2019-04-11T12:47:03.330Z,35.25
2019-04-11T12:49:35.542Z,35.40
2019-04-11T12:52:26.302Z,34.82
2019-04-11T12:55:04.219Z,35.46
2019-04-11T12:57:54.414Z,35.33
2019-04-11T13:00:35.875Z,35.56
2019-04-11T13:03:24.655Z,35.87
2019-04-11T13:05:56.866Z,36.59
2019-04-11T13:08:29.102Z,36.58
2019-04-11T13:11:00.924Z,36.49
2019-04-11T13:13:33.475Z,36.69
2019-04-11T13:16:12.344Z,35.96
2019-04-11T13:18:59.259Z,35.90
2019-04-11T13:21:31.690Z,36.21
2019-04-11T13:24:10.263Z,34.74
2019-04-11T13:26:58.782Z,35.57
2019-04-11T13:29:31.020Z,35.46
2019-04-11T13:32:21.686Z,35.87
2019-04-11T13:34:53.926Z,35.70
2019-04-11T13:37:35.271Z,35.29
2019-04-11T13:40:20.276Z,34.70
2019-04-11T13:43:08.448Z,36.17
2019-04-11T13:45:40.911Z,35.08
2019-04-11T13:48:29.562Z,36.21
2019-04-11T13:51:01.839Z,35.38
2019-04-11T13:53:43.428Z,35.24
2019-04-11T13:56:14.206Z,35.80
2019-04-11T13:58:46.664Z,36.36
2019-04-11T14:01:17.647Z,35.05
2019-04-11T14:04:03.010Z,35.70
2019-04-11T14:06:33.729Z,35.67
2019-04-11T14:09:18.274Z,36.16
2019-04-11T14:11:50.323Z,34.86
2019-04-11T14:14:22.830Z,35.09
2019-04-11T14:16:55.143Z,35.04
2019-04-11T14:19:33.116Z,34.95
2019-04-11T14:22:07.025Z,35.19
2019-04-11T14:24:43.940Z,33.06
2019-04-11T14:27:20.129Z,34.61
2019-04-11T14:29:52.442Z,34.07
2019-04-11T14:32:24.512Z,35.00
2019-04-11T14:35:04.095Z,35.12
2019-04-11T14:37:38.488Z,35.39
2019-04-11T14:40:19.064Z,34.53
2019-04-11T14:43:05.242Z,34.16
2019-04-11T14:45:45.142Z,35.27
2019-04-11T14:48:17.466Z,34.45
2019-04-11T14:50:50.618Z,34.60
2019-04-11T14:53:41.840Z,34.11
2019-04-11T14:56:14.213Z,34.01
2019-04-11T14:59:06.134Z,34.86
2019-04-11T15:01:36.610Z,35.04
2019-04-11T15:04:13.611Z,34.97
2019-04-11T15:06:54.224Z,34.74
2019-04-11T15:09:41.655Z,35.68
2019-04-11T15:12:17.650Z,35.49
2019-04-11T15:15:04.909Z,34.94
2019-04-11T15:17:37.167Z,34.66
2019-04-11T15:20:13.043Z,34.72
2019-04-11T15:22:51.445Z,35.27
2019-04-11T15:25:30.367Z,34.96
2019-04-11T15:28:12.617Z,34.73
2019-04-11T15:30:49.704Z,34.92
2019-04-11T15:33:22.694Z,35.17
2019-04-11T15:35:57.768Z,35.84
2019-04-11T15:38:46.915Z,35.96
2019-04-11T15:41:17.715Z,36.58
2019-04-11T15:43:49.930Z,36.39
2019-04-11T15:46:28.050Z,37.13
2019-04-11T15:49:03.127Z,36.30
2019-04-11T15:51:35.724Z,36.71
2019-04-11T15:54:16.818Z,37.50
2019-04-11T15:56:49.042Z,37.21
2019-04-11T15:59:34.822Z,37.68
2019-04-11T16:02:23.637Z,37.67
2019-04-11T16:05:02.756Z,38.13
2019-04-11T16:07:51.290Z,37.90
2019-04-11T16:10:23.520Z,38.19
2019-04-11T16:13:07.765Z,38.25
2019-04-11T16:15:42.498Z,38.66
2019-04-11T16:18:28.177Z,38.46
2019-04-11T16:21:00.510Z,38.87
2019-04-11T16:23:47.838Z,38.40
2019-04-11T16:26:28.758Z,37.53
2019-04-11T16:29:16.024Z,38.43
2019-04-11T16:31:47.281Z,38.97
2019-04-11T16:34:19.689Z,39.59
2019-04-11T16:36:51.588Z,39.82
2019-04-11T16:39:30.028Z,39.80
2019-04-11T16:42:02.362Z,39.84
2019-04-11T16:44:55.223Z,40.42
2019-04-11T16:47:42.907Z,40.36
2019-04-11T16:50:13.398Z,39.66
2019-04-11T16:52:43.987Z,39.02
2019-04-11T16:55:14.576Z,39.30
2019-04-11T16:57:45.184Z,39.90
2019-04-11T17:00:20.573Z,40.99
2019-04-11T17:02:54.668Z,41.30
2019-04-11T17:05:24.037Z,41.45
2019-04-11T17:08:01.481Z,40.96
2019-04-11T17:10:50.685Z,40.64
2019-04-11T17:13:23.769Z,41.61
2019-04-11T17:15:55.064Z,41.34
2019-04-11T17:18:25.696Z,40.73
2019-04-11T17:20:56.984Z,41.98
2019-04-11T17:23:27.594Z,42.50
2019-04-11T17:25:58.188Z,42.70
2019-04-11T17:28:28.794Z,42.10
2019-04-11T17:30:59.370Z,42.30
2019-04-11T17:33:30.261Z,43.20
2019-04-11T17:36:02.878Z,42.46
2019-04-11T17:38:36.924Z,42.86
2019-04-11T17:41:06.284Z,43.22
2019-04-11T17:43:36.887Z,44.12
2019-04-11T17:46:07.597Z,43.94
2019-04-11T17:48:38.372Z,44.02
2019-04-11T17:51:09.650Z,43.84
2019-04-11T17:53:40.418Z,43.52
2019-04-11T17:56:11.072Z,43.73
2019-04-11T17:58:41.836Z,43.56
2019-04-11T18:01:12.517Z,42.69
2019-04-11T18:03:43.818Z,42.54
2019-04-11T18:06:17.206Z,42.97
2019-04-11T18:08:51.328Z,43.12
2019-04-11T18:11:26.076Z,42.71
2019-04-11T18:13:56.401Z,42.49
2019-04-11T18:16:28.869Z,43.39
2019-04-11T18:19:00.051Z,43.00
2019-04-11T18:21:31.000Z,43.47
2019-04-11T18:24:01.853Z,43.88
2019-04-11T18:26:34.865Z,43.56
2019-04-11T18:29:06.009Z,43.86
2019-04-11T18:31:37.088Z,43.88
2019-04-11T18:34:08.337Z,43.74
2019-04-11T18:36:39.341Z,42.78
2019-04-11T18:39:10.660Z,42.97
2019-04-11T18:41:41.718Z,43.12
2019-04-11T18:44:13.086Z,42.97
2019-04-11T18:46:45.749Z,42.65
2019-04-11T18:49:16.819Z,43.55
2019-04-11T18:51:47.549Z,43.56
2019-04-11T18:54:19.825Z,43.58
2019-04-11T18:56:50.730Z,42.81
2019-04-11T18:59:22.822Z,43.27
2019-04-11T19:01:54.327Z,42.08
2019-04-11T19:04:32.175Z,42.23
2019-04-11T19:07:04.740Z,43.38
2019-04-11T19:09:37.736Z,42.92
2019-04-11T19:12:09.030Z,43.75
2019-04-11T19:14:39.997Z,43.23
2019-04-11T19:17:10.770Z,42.35
2019-04-11T19:19:41.722Z,42.36
2019-04-11T19:22:12.862Z,42.07
2019-04-11T19:24:43.534Z,42.29
2019-04-11T19:27:16.590Z,42.04
2019-04-11T19:29:48.574Z,42.45
2019-04-11T19:32:21.461Z,43.16
2019-04-11T19:34:52.366Z,42.89
2019-04-11T19:37:23.262Z,43.34
2019-04-11T19:39:55.694Z,42.81
2019-04-11T19:42:28.557Z,42.30
2019-04-11T19:45:02.760Z,42.82
2019-04-11T19:47:33.122Z,43.21
2019-04-11T19:50:06.224Z,42.88
2019-04-11T19:52:45.109Z,42.78
2019-04-11T19:55:20.481Z,43.10
2019-04-11T19:57:53.036Z,43.46
2019-04-11T20:00:24.201Z,43.47
2019-04-11T20:02:55.124Z,43.52
2019-04-11T20:05:25.769Z,43.12
2019-04-11T20:07:58.721Z,42.75
2019-04-11T20:10:31.598Z,43.27
2019-04-11T20:13:04.710Z,43.84
2019-04-11T20:15:37.372Z,43.35
2019-04-11T20:18:08.975Z,43.92
2019-04-11T20:20:39.706Z,44.04
2019-04-11T20:23:11.502Z,44.06
2019-04-11T20:25:45.716Z,44.07
2019-04-11T20:28:19.788Z,43.78
2019-04-11T20:30:50.892Z,43.81
2019-04-11T20:33:27.215Z,43.61
2019-04-11T20:35:57.469Z,43.28
2019-04-11T20:38:28.654Z,43.20
2019-04-11T20:41:00.396Z,43.57
2019-04-11T20:43:31.230Z,43.29
2019-04-11T20:46:02.457Z,43.18
2019-04-11T20:48:35.146Z,42.85
2019-04-11T20:51:05.672Z,43.82
2019-04-11T20:53:37.474Z,44.03
2019-04-11T20:56:09.912Z,44.38
2019-04-11T20:58:40.668Z,44.57
2019-04-11T21:01:12.529Z,44.23
2019-04-11T21:03:43.408Z,44.55
2019-04-11T21:06:14.239Z,43.80
2019-04-11T21:08:44.916Z,44.80
2019-04-11T21:11:18.753Z,44.97
2019-04-11T21:13:51.100Z,45.62
2019-04-11T21:16:21.726Z,45.58
2019-04-11T21:18:54.463Z,45.08
2019-04-11T21:21:25.161Z,44.11
2019-04-11T21:23:57.950Z,44.55
2019-04-11T21:26:29.463Z,44.60
2019-04-11T21:29:00.260Z,44.29
2019-04-11T21:31:31.748Z,44.34
2019-04-11T21:34:02.992Z,45.55
2019-04-11T21:36:33.633Z,44.84
2019-04-11T21:39:06.790Z,44.72
2019-04-11T21:41:39.541Z,45.22
2019-04-11T21:44:11.293Z,45.53
2019-04-11T21:46:42.153Z,46.58
2019-04-11T21:49:12.784Z,46.77
2019-04-11T21:51:43.321Z,47.54
2019-04-11T21:54:15.066Z,47.67
2019-04-11T21:56:49.252Z,47.25
2019-04-11T21:59:20.325Z,46.67
2019-04-11T22:01:54.113Z,47.03
2019-04-11T22:04:26.891Z,46.47
2019-04-11T22:06:56.361Z,46.09
2019-04-11T22:09:26.915Z,46.28
2019-04-11T22:11:57.466Z,46.45
2019-04-11T22:14:28.002Z,46.74
2019-04-11T22:16:58.548Z,46.19
2019-04-11T22:19:29.083Z,45.94
2019-04-11T22:21:59.623Z,45.67
2019-04-11T22:24:30.161Z,45.63
2019-04-11T22:27:00.688Z,45.90
2019-04-11T22:29:31.225Z,46.90
2019-04-11T22:32:01.856Z,46.57
2019-04-11T22:34:42.827Z,46.10
2019-04-11T22:37:13.434Z,46.05
2019-04-11T22:39:43.985Z,45.91
2019-04-11T22:42:14.675Z,45.51
2019-04-11T22:44:45.199Z,46.45
2019-04-11T22:47:15.759Z,47.70
2019-04-11T22:49:46.519Z,47.11
2019-04-11T22:52:17.429Z,47.48
2019-04-11T22:54:47.994Z,47.05
2019-04-11T22:57:18.547Z,46.56
2019-04-11T22:59:49.092Z,46.28
2019-04-11T23:02:24.243Z,46.46
2019-04-11T23:04:55.008Z,46.45
2019-04-11T23:07:25.541Z,46.79
2019-04-11T23:09:56.079Z,46.39
2019-04-11T23:12:27.574Z,46.97
2019-04-11T23:14:58.215Z,46.09
2019-04-11T23:17:28.771Z,46.80
2019-04-11T23:19:59.396Z,46.24
2019-04-11T23:22:29.930Z,45.90
2019-04-11T23:27:29.679Z,45.91
2019-04-11T23:30:00.253Z,46.40
2019-04-11T23:32:30.807Z,45.75
2019-04-11T23:35:01.392Z,45.83
2019-04-11T23:37:33.795Z,45.54
2019-04-11T23:40:05.741Z,46.03
2019-04-11T23:42:36.311Z,45.92
2019-04-11T23:45:06.866Z,46.49
2019-04-11T23:47:37.441Z,46.14
2019-04-11T23:50:08.149Z,45.41
2019-04-11T23:52:38.727Z,45.64
2019-04-11T23:55:09.413Z,45.20
2019-04-11T23:57:39.975Z,45.05
